DXNG

Details ICAO DXNG (LRL)
Name Niamtougou
Region Togolese Republic
Timezone Africa/Lome (UTC+0.0)
Plans Departing 1
Arriving 3
Stats Elevation 1,515 ft / 462 m (AMSL)
Location 9.767171° 1.091241°
Runways 1
Magnetic Variation 2.125° W
Sunrise 2017-12-13 06:04:27 UTC / 2017-12-13 06:04:27 Local
Sunset 2017-12-13 17:38:03 UTC / 2017-12-13 17:38:03 Local
Advertisement - Login to hide

Runways

ID Width Length Bearing (true) Bearing (mag) Surface Threshold Offset Overrun Length
03 148 ft / 45 m 8,877 ft / 2,706 m 23.07° 25.20° Asphalt 335 ft / 102 m 0 ft / 0 m
21 148 ft / 45 m 8,877 ft / 2,706 m 203.07° 205.20° Asphalt 335 ft / 102 m 0 ft / 0 m

Approach Navaids

Runway Type Ident Frequency Range Bearing (true) Bearing (mag) Slope Elevation
03 Localiser NM 110.30 MHz 20 nm / 37 km 23.13° 25.25° - 1,515 ft / 462 m (AMSL)
03 Glidescope NM 110.30 MHz 20 nm / 37 km 27.00° 29.13° 3.00° 1,515 ft / 462 m (AMSL)

Map

Weather


0- 5 10 15 20 25 30 35+ Temperature / ° C

Clouds and Precipitation
Forecast for 2017-12-13 00:00 UTC. Updated 34 minutes ago

Ground ~20,000 ft ~40,000 ft Winds

METAR

Not found

TAF

TAF TAF DXNG 121730Z 1218/1318 07008KT 8000 NSC

Frequencies

Tower 118.30 MHz Tower
Warning: Do not use this data for real-world aviation or navigation. No guarantee of current accuracy is given.